Time;durP1;ratioP1;P1;durP2;ratioP2;P2;SDS_P1;SDS_P2;PMS_P1;PMS_P2;Temp;Humidity;BMP_temperature;BMP_pressure;BME280_temperature;BME280_humidity;BME280_pressure;Samples;Min_cycle;Max_cycle;Signal;HPM_P1;HPM_P2
2023/03/21 00:02:11;;;;;;;36.15;23.73;;;10.80;99.90;;;;;;5083814;28;20711;-61
2023/03/21 00:05:00;;;;;;;35.83;23.23;;;10.80;99.90;;;;;;5094735;27;20311;-61
2023/03/21 00:08:02;;;;;;;35.25;22.35;;;10.70;99.90;;;;;;5084544;28;20239;-63
2023/03/21 00:10:57;;;;;;;36.00;23.02;;;10.80;99.90;;;;;;5077446;28;20736;-60
2023/03/21 00:13:46;;;;;;;34.17;23.10;;;10.90;99.90;;;;;;5087985;28;20227;-59
2023/03/21 00:16:36;;;;;;;36.25;23.02;;;10.80;99.90;;;;;;5082707;28;20299;-62
2023/03/21 00:19:29;;;;;;;37.60;23.95;;;10.90;99.90;;;;;;5089234;28;20235;-62
2023/03/21 00:22:18;;;;;;;36.72;23.88;;;10.80;99.90;;;;;;5081723;28;20385;-61
2023/03/21 00:25:09;;;;;;;42.53;25.98;;;10.70;99.90;;;;;;5079185;28;20321;-61
2023/03/21 00:27:58;;;;;;;38.28;24.38;;;10.60;99.90;;;;;;5083837;27;20223;-60
2023/03/21 00:30:58;;;;;;;36.15;23.20;;;10.70;99.90;;;;;;5080486;28;20232;-60
2023/03/21 00:33:47;;;;;;;35.17;23.60;;;10.70;99.90;;;;;;5082636;28;20227;-60
2023/03/21 00:36:37;;;;;;;37.42;23.67;;;10.70;99.90;;;;;;5085153;28;20239;-60
2023/03/21 00:39:27;;;;;;;38.65;25.00;;;10.70;99.90;;;;;;5082709;28;20227;-59
2023/03/21 00:42:16;;;;;;;38.40;25.05;;;10.70;99.90;;;;;;5081183;28;20234;-66
2023/03/21 00:45:09;;;;;;;38.35;25.50;;;10.60;99.90;;;;;;5077139;28;20234;-61
2023/03/21 00:47:58;;;;;;;42.08;25.98;;;10.70;99.90;;;;;;5082331;28;20223;-61
2023/03/21 00:50:51;;;;;;;42.83;25.38;;;10.70;99.90;;;;;;5079636;28;20231;-62
2023/03/21 00:53:43;;;;;;;40.35;25.42;;;10.70;99.90;;;;;;5087834;27;20310;-61
2023/03/21 00:56:32;;;;;;;40.17;25.08;;;10.70;99.90;;;;;;5084349;28;20226;-62
2023/03/21 00:59:21;;;;;;;39.08;25.73;;;10.80;99.90;;;;;;5079067;28;20303;-62
2023/03/21 01:02:21;;;;;;;38.00;25.27;;;10.70;99.90;;;;;;5078336;28;20678;-62
2023/03/21 01:05:11;;;;;;;40.33;25.65;;;10.60;99.90;;;;;;5070920;28;20238;-62
2023/03/21 01:08:00;;;;;;;39.45;25.27;;;10.50;99.90;;;;;;5079410;28;20321;-63
2023/03/21 01:11:02;;;;;;;37.45;23.50;;;10.50;99.90;;;;;;5080851;28;20314;-62
2023/03/21 01:13:51;;;;;;;37.92;24.58;;;10.50;99.90;;;;;;5081409;28;20215;-63
2023/03/21 01:16:55;;;;;;;38.85;23.75;;;10.50;99.90;;;;;;5080207;28;20211;-62
2023/03/21 01:19:43;;;;;;;38.35;23.60;;;10.50;99.90;;;;;;5080327;28;20220;-62
2023/03/21 01:22:40;;;;;;;36.83;22.98;;;10.50;99.90;;;;;;5074191;28;21104;-63
2023/03/21 01:25:29;;;;;;;36.55;22.98;;;10.40;99.90;;;;;;5080738;28;20789;-62
2023/03/21 01:28:20;;;;;;;36.33;23.02;;;10.40;99.90;;;;;;5078955;28;20246;-62
2023/03/21 01:31:11;;;;;;;34.70;22.45;;;10.40;99.90;;;;;;5074676;28;20330;-62
2023/03/21 01:33:59;;;;;;;35.58;22.23;;;10.40;99.90;;;;;;5090765;28;20690;-62
2023/03/21 01:36:48;;;;;;;31.45;21.38;;;10.40;99.90;;;;;;5083599;28;20356;-63
2023/03/21 01:39:40;;;;;;;35.47;22.42;;;10.40;99.90;;;;;;5074664;28;20619;-62
2023/03/21 01:42:29;;;;;;;36.40;21.75;;;10.30;99.90;;;;;;5081873;28;20242;-62
2023/03/21 01:45:55;;;;;;;34.08;22.05;;;10.40;99.90;;;;;;5071026;28;20223;-61
2023/03/21 01:48:56;;;;;;;31.88;22.40;;;10.30;99.90;;;;;;5078489;28;20296;-62
2023/03/21 01:51:50;;;;;;;32.88;21.67;;;10.40;99.90;;;;;;5083289;28;20253;-62
2023/03/21 01:54:43;;;;;;;38.35;23.23;;;10.30;99.90;;;;;;5093456;28;20250;-61
2023/03/21 01:57:37;;;;;;;31.20;20.95;;;10.20;99.90;;;;;;5081702;28;20969;-62
2023/03/21 02:00:38;;;;;;;37.85;21.65;;;10.10;99.90;;;;;;5075859;28;20242;-61
2023/03/21 02:03:49;;;;;;;32.17;21.48;;;10.30;99.90;;;;;;5076397;28;20310;-61
2023/03/21 02:07:02;;;;;;;33.92;20.30;;;10.30;99.90;;;;;;5078453;28;20690;-62
2023/03/21 02:10:03;;;;;;;32.78;21.35;;;10.40;99.90;;;;;;5088176;28;20299;-61
2023/03/21 02:12:53;;;;;;;31.70;21.02;;;10.30;99.90;;;;;;5073786;28;20394;-62
2023/03/21 02:15:53;;;;;;;33.08;21.17;;;10.40;99.90;;;;;;5080167;28;20219;-62
2023/03/21 02:18:56;;;;;;;29.88;20.55;;;10.20;99.90;;;;;;5093356;28;20348;-62
2023/03/21 02:22:27;;;;;;;30.98;18.92;;;10.20;99.90;;;;;;5084184;28;20367;-62
2023/03/21 02:25:58;;;;;;;29.95;19.52;;;10.10;99.90;;;;;;5073431;28;20928;-62
2023/03/21 02:28:52;;;;;;;29.38;18.63;;;10.10;99.90;;;;;;5043107;28;20296;-62
2023/03/21 02:31:45;;;;;;;27.95;18.58;;;10.00;99.90;;;;;;5084865;28;20579;-62
2023/03/21 02:35:01;;;;;;;32.83;18.70;;;10.20;99.90;;;;;;5083135;28;20269;-62
2023/03/21 02:37:57;;;;;;;27.90;17.70;;;10.10;99.90;;;;;;5074243;28;20306;-62
2023/03/21 02:40:59;;;;;;;29.63;18.15;;;10.10;99.90;;;;;;5079110;28;20693;-63
2023/03/21 02:43:57;;;;;;;30.88;19.00;;;10.10;99.90;;;;;;5084091;28;20220;-61
2023/03/21 02:46:51;;;;;;;30.63;19.02;;;10.20;99.90;;;;;;5083781;28;20349;-61
2023/03/21 02:49:56;;;;;;;28.88;18.65;;;10.20;99.90;;;;;;5088355;28;20219;-64
2023/03/21 02:52:48;;;;;;;31.52;20.42;;;10.20;99.90;;;;;;5084361;28;20231;-63
2023/03/21 02:55:41;;;;;;;32.85;21.58;;;10.40;99.90;;;;;;5086593;28;20219;-62
2023/03/21 02:58:32;;;;;;;29.63;20.63;;;10.20;99.90;;;;;;5076917;28;20560;-63
2023/03/21 03:01:24;;;;;;;33.60;22.48;;;10.30;99.90;;;;;;5097936;28;20226;-63
2023/03/21 03:04:21;;;;;;;31.05;22.35;;;10.30;99.90;;;;;;5082702;28;20239;-60
2023/03/21 03:07:21;;;;;;;32.10;21.75;;;10.30;99.90;;;;;;5094766;28;20314;-63
2023/03/21 03:10:22;;;;;;;29.40;21.40;;;10.20;99.90;;;;;;5077787;28;20222;-63
2023/03/21 03:13:22;;;;;;;30.42;21.58;;;10.20;99.90;;;;;;5079135;28;20223;-62
2023/03/21 03:16:21;;;;;;;31.50;20.05;;;10.20;99.90;;;;;;5076107;28;20242;-60
2023/03/21 03:19:15;;;;;;;29.08;19.80;;;10.10;99.90;;;;;;5079952;28;20231;-61
2023/03/21 03:22:10;;;;;;;30.58;20.38;;;10.20;99.90;;;;;;5082892;28;20643;-61
2023/03/21 03:25:03;;;;;;;28.17;19.80;;;10.10;99.90;;;;;;5081971;28;20218;-62
2023/03/21 03:28:15;;;;;;;27.60;20.15;;;10.30;99.90;;;;;;5095607;28;20710;-61
2023/03/21 03:31:10;;;;;;;26.42;18.95;;;10.20;99.90;;;;;;5079548;28;20685;-62
2023/03/21 03:34:12;;;;;;;29.23;20.25;;;10.10;99.90;;;;;;5089991;28;20251;-60
2023/03/21 03:37:05;;;;;;;25.65;18.52;;;10.00;99.90;;;;;;5075676;27;20222;-62
2023/03/21 03:39:59;;;;;;;26.85;18.98;;;10.00;99.90;;;;;;5095737;28;20227;-61
2023/03/21 03:42:53;;;;;;;29.08;19.58;;;10.10;99.90;;;;;;5095216;28;20309;-62
2023/03/21 03:45:51;;;;;;;29.90;19.42;;;10.10;99.90;;;;;;5082533;28;20223;-60
2023/03/21 03:48:47;;;;;;;23.92;18.10;;;10.10;99.90;;;;;;5082732;28;20345;-61
2023/03/21 03:51:42;;;;;;;28.23;19.40;;;10.20;99.90;;;;;;5077675;28;20659;-61
2023/03/21 03:54:51;;;;;;;28.20;19.55;;;10.00;99.90;;;;;;5089758;28;20318;-61
2023/03/21 03:57:41;;;;;;;30.27;18.42;;;10.10;99.90;;;;;;5080172;28;20211;-59
2023/03/21 04:00:33;;;;;;;29.52;20.23;;;10.10;99.90;;;;;;5080062;28;20216;-61
2023/03/21 04:03:22;;;;;;;29.95;18.65;;;9.90;99.90;;;;;;5085853;28;20215;-61
2023/03/21 04:06:13;;;;;;;29.10;19.83;;;10.00;99.90;;;;;;5075849;28;20231;-60
2023/03/21 04:09:04;;;;;;;30.35;20.30;;;10.00;99.90;;;;;;5082171;28;20697;-61
2023/03/21 04:12:08;;;;;;;27.42;19.83;;;10.20;99.90;;;;;;5085464;28;20239;-61
2023/03/21 04:14:59;;;;;;;29.00;19.42;;;10.00;99.90;;;;;;5099816;28;20311;-60
2023/03/21 04:17:59;;;;;;;25.60;19.60;;;10.00;99.90;;;;;;5081259;28;20228;-60
2023/03/21 04:20:50;;;;;;;29.55;19.63;;;10.00;99.90;;;;;;5091043;28;20797;-61
2023/03/21 04:23:41;;;;;;;26.08;18.45;;;10.10;99.90;;;;;;5093832;28;20803;-61
2023/03/21 04:26:32;;;;;;;27.35;18.90;;;10.00;99.90;;;;;;5073019;28;20232;-60
2023/03/21 04:29:54;;;;;;;26.95;19.17;;;9.90;99.90;;;;;;5075295;27;20220;-60
2023/03/21 04:32:59;;;;;;;25.60;19.35;;;10.00;99.90;;;;;;5080941;28;20463;-59
2023/03/21 04:35:54;;;;;;;27.23;19.33;;;10.00;99.90;;;;;;5098604;28;20230;-60
2023/03/21 04:38:47;;;;;;;30.77;19.85;;;9.90;99.90;;;;;;5094567;28;20230;-61
2023/03/21 04:41:37;;;;;;;28.58;18.63;;;9.70;99.90;;;;;;5093092;28;20381;-61
2023/03/21 04:44:26;;;;;;;27.02;18.05;;;9.90;99.90;;;;;;5073727;28;20247;-61
2023/03/21 04:47:15;;;;;;;23.67;17.30;;;10.10;99.90;;;;;;5083366;28;20240;-61
2023/03/21 04:50:05;;;;;;;26.08;18.15;;;10.00;99.90;;;;;;5082254;28;20743;-61
2023/03/21 04:52:54;;;;;;;23.35;16.98;;;10.00;99.90;;;;;;5083750;28;20273;-61
2023/03/21 04:55:45;;;;;;;23.23;17.35;;;10.10;99.90;;;;;;5079280;28;20594;-62
2023/03/21 04:58:33;;;;;;;23.00;15.60;;;10.10;99.90;;;;;;5080071;28;20222;-62
2023/03/21 05:01:22;;;;;;;23.05;16.55;;;10.10;99.90;;;;;;5079696;28;20908;-59
2023/03/21 05:04:13;;;;;;;22.00;15.68;;;10.10;99.90;;;;;;5077174;28;20219;-62
2023/03/21 05:07:02;;;;;;;19.38;14.82;;;10.10;99.90;;;;;;5063180;28;20219;-62
2023/03/21 05:09:51;;;;;;;21.67;15.15;;;10.00;99.90;;;;;;5077229;28;20227;-62
2023/03/21 05:12:42;;;;;;;20.90;14.85;;;10.00;99.90;;;;;;5085516;28;20690;-61
2023/03/21 05:15:31;;;;;;;21.35;15.20;;;10.10;99.90;;;;;;5091475;27;20237;-61
2023/03/21 05:18:23;;;;;;;20.02;14.85;;;10.00;99.90;;;;;;5082515;28;20223;-59
2023/03/21 05:21:40;;;;;;;21.83;14.82;;;10.10;99.90;;;;;;5083115;28;20977;-63
2023/03/21 05:24:33;;;;;;;20.35;14.50;;;10.10;99.90;;;;;;5084261;28;20510;-58
2023/03/21 05:27:35;;;;;;;22.35;15.20;;;10.00;99.90;;;;;;5078158;28;20216;-61
2023/03/21 05:30:30;;;;;;;20.25;15.02;;;10.10;99.90;;;;;;5079547;28;20710;-61
2023/03/21 05:33:21;;;;;;;22.50;16.08;;;10.00;99.90;;;;;;5089620;27;20248;-61
2023/03/21 05:36:11;;;;;;;22.50;15.48;;;10.00;99.90;;;;;;5080156;28;20645;-61
2023/03/21 05:39:00;;;;;;;23.05;15.35;;;10.00;99.90;;;;;;5090638;28;20216;-61
2023/03/21 05:41:51;;;;;;;25.50;15.93;;;10.00;99.90;;;;;;5077793;28;20576;-60
2023/03/21 05:44:40;;;;;;;20.35;15.10;;;10.00;99.90;;;;;;5081259;28;20231;-62
2023/03/21 05:47:32;;;;;;;22.10;15.68;;;10.00;99.90;;;;;;5068760;28;20227;-60
2023/03/21 05:50:21;;;;;;;22.42;15.40;;;10.10;99.90;;;;;;5075958;28;20321;-61
2023/03/21 05:53:24;;;;;;;23.80;16.42;;;10.10;99.90;;;;;;5085473;28;20238;-61
2023/03/21 05:56:12;;;;;;;21.27;15.48;;;10.20;99.90;;;;;;5080943;28;20223;-61
2023/03/21 05:59:11;;;;;;;23.33;16.35;;;10.20;99.90;;;;;;5082897;28;20767;-63
2023/03/21 06:02:04;;;;;;;22.95;16.02;;;10.10;99.90;;;;;;5081590;28;20237;-62
2023/03/21 06:04:55;;;;;;;21.17;15.32;;;10.10;99.90;;;;;;5081765;28;20212;-63
2023/03/21 06:07:44;;;;;;;22.42;16.48;;;10.10;99.90;;;;;;5076955;28;20228;-61
2023/03/21 06:10:33;;;;;;;20.60;14.70;;;9.90;99.90;;;;;;5075548;28;20701;-61
2023/03/21 06:13:24;;;;;;;21.17;15.45;;;10.00;99.90;;;;;;5076943;28;20231;-62
2023/03/21 06:16:13;;;;;;;24.15;15.30;;;9.90;99.90;;;;;;5076766;28;20231;-63
2023/03/21 06:19:02;;;;;;;23.00;15.48;;;10.00;99.90;;;;;;5072577;28;20257;-65
2023/03/21 06:22:15;;;;;;;19.02;14.50;;;10.10;99.90;;;;;;5072810;28;21081;-57
2023/03/21 06:25:06;;;;;;;18.58;13.60;;;10.20;99.90;;;;;;5070397;28;20227;-61
2023/03/21 06:27:55;;;;;;;22.17;15.88;;;10.10;99.90;;;;;;5071274;28;20224;-61
2023/03/21 06:30:44;;;;;;;20.95;14.05;;;10.10;99.90;;;;;;5074734;28;20216;-61
2023/03/21 06:33:40;;;;;;;17.88;13.27;;;10.10;99.90;;;;;;5075248;28;20689;-62
2023/03/21 06:36:30;;;;;;;18.38;13.20;;;10.00;99.90;;;;;;5074862;28;20255;-61
2023/03/21 06:39:21;;;;;;;18.10;13.93;;;10.10;99.90;;;;;;5075543;28;20363;-61
2023/03/21 06:42:10;;;;;;;19.15;13.68;;;10.20;99.90;;;;;;5078713;28;20284;-62
2023/03/21 06:44:59;;;;;;;16.98;12.05;;;10.30;99.90;;;;;;5078613;28;20227;-61
2023/03/21 06:47:48;;;;;;;16.35;11.50;;;10.30;99.90;;;;;;5077025;28;20227;-62
2023/03/21 06:50:51;;;;;;;15.40;11.25;;;10.30;99.90;;;;;;5074922;28;20313;-62
2023/03/21 06:53:44;;;;;;;18.10;10.77;;;10.40;99.90;;;;;;5080066;28;20223;-61
2023/03/21 06:56:45;;;;;;;14.82;10.90;;;10.20;99.90;;;;;;5075845;28;20220;-62
2023/03/21 06:59:41;;;;;;;13.48;10.20;;;10.20;99.90;;;;;;5086236;28;20228;-64
2023/03/21 07:02:34;;;;;;;13.45;10.43;;;10.20;99.90;;;;;;5076360;28;20224;-61
2023/03/21 07:05:29;;;;;;;14.77;10.40;;;10.30;99.90;;;;;;5075338;28;20218;-60
2023/03/21 07:08:21;;;;;;;16.02;11.35;;;10.30;99.90;;;;;;5078652;28;20247;-62
2023/03/21 07:11:10;;;;;;;19.17;11.55;;;10.20;99.90;;;;;;5088998;28;20227;-61
2023/03/21 07:14:02;;;;;;;15.55;10.23;;;10.20;99.90;;;;;;5077480;28;20228;-61
2023/03/21 07:16:51;;;;;;;12.43;9.75;;;10.50;99.90;;;;;;5090914;28;20223;-61
2023/03/21 07:19:39;;;;;;;14.48;9.88;;;10.40;99.90;;;;;;5104563;28;20300;-61
2023/03/21 07:22:31;;;;;;;12.32;8.85;;;10.40;99.90;;;;;;5091987;27;20223;-60
2023/03/21 07:25:20;;;;;;;11.02;9.23;;;10.30;99.90;;;;;;5093769;28;20223;-59
2023/03/21 07:28:09;;;;;;;14.07;9.05;;;10.40;99.90;;;;;;5077787;28;20284;-60
2023/03/21 07:31:01;;;;;;;13.75;9.13;;;10.30;99.90;;;;;;5053144;28;20220;-61
2023/03/21 07:33:50;;;;;;;11.60;9.27;;;10.30;99.90;;;;;;5077552;28;20235;-61
2023/03/21 07:36:39;;;;;;;14.00;9.85;;;10.30;99.90;;;;;;5067405;28;20808;-61
2023/03/21 07:39:28;;;;;;;11.38;8.98;;;10.40;99.90;;;;;;5054581;28;20361;-62
2023/03/21 07:42:17;;;;;;;13.27;8.43;;;10.60;99.90;;;;;;5092747;27;20242;-61
2023/03/21 07:45:07;;;;;;;12.90;9.27;;;10.40;99.90;;;;;;5081597;28;20303;-60
2023/03/21 07:47:57;;;;;;;12.63;9.00;;;10.60;99.90;;;;;;5080433;28;20246;-61
2023/03/21 07:50:46;;;;;;;11.05;7.80;;;10.80;99.90;;;;;;5066227;28;20737;-61
2023/03/21 07:53:35;;;;;;;8.00;6.70;;;10.90;99.90;;;;;;5066357;28;20226;-61
2023/03/21 07:56:24;;;;;;;9.18;7.47;;;10.90;99.90;;;;;;5080386;28;20264;-61
2023/03/21 07:59:12;;;;;;;11.07;7.28;;;11.10;99.90;;;;;;5081395;28;20276;-62
2023/03/21 08:02:01;;;;;;;9.98;7.53;;;11.00;99.90;;;;;;5084346;28;20219;-59
2023/03/21 08:04:51;;;;;;;10.77;7.50;;;11.10;99.90;;;;;;5083685;28;20223;-61
2023/03/21 08:07:40;;;;;;;9.73;7.43;;;10.90;99.90;;;;;;5082840;28;20264;-62
2023/03/21 08:10:29;;;;;;;8.68;6.57;;;11.00;99.90;;;;;;5078964;27;20360;-61
2023/03/21 08:13:19;;;;;;;8.98;6.80;;;11.00;99.90;;;;;;5082348;28;20219;-61
2023/03/21 08:16:09;;;;;;;11.68;7.45;;;11.10;99.90;;;;;;5079189;28;20874;-61
2023/03/21 08:18:57;;;;;;;9.80;6.82;;;11.20;99.90;;;;;;5083140;27;20231;-61
2023/03/21 08:21:48;;;;;;;10.15;7.82;;;11.10;99.90;;;;;;5076286;28;20223;-61
2023/03/21 08:24:36;;;;;;;10.77;8.48;;;11.10;99.90;;;;;;5074279;28;20231;-60
2023/03/21 08:27:25;;;;;;;13.02;8.18;;;11.00;99.90;;;;;;5079430;28;20315;-59
2023/03/21 08:30:17;;;;;;;10.75;8.45;;;11.00;99.90;;;;;;5078159;28;20720;-63
2023/03/21 08:33:06;;;;;;;14.40;8.38;;;11.00;99.90;;;;;;5079698;28;20264;-60
2023/03/21 08:35:55;;;;;;;8.95;7.15;;;11.10;99.90;;;;;;5082809;28;20250;-63
2023/03/21 08:38:47;;;;;;;11.15;8.15;;;11.30;99.90;;;;;;5081458;28;20335;-62
2023/03/21 08:41:37;;;;;;;11.85;8.18;;;11.20;99.90;;;;;;5080805;28;20227;-60
2023/03/21 08:44:26;;;;;;;11.18;8.20;;;11.30;99.90;;;;;;5079806;28;20231;-62
2023/03/21 08:47:15;;;;;;;11.45;8.07;;;11.30;99.90;;;;;;5080075;28;20219;-61
2023/03/21 08:50:06;;;;;;;10.73;8.60;;;11.30;99.90;;;;;;5080010;28;20219;-62
2023/03/21 08:52:55;;;;;;;10.75;8.10;;;11.50;99.90;;;;;;5078048;27;20231;-63
2023/03/21 08:55:45;;;;;;;11.27;8.07;;;11.40;99.90;;;;;;5078519;28;20238;-61
2023/03/21 08:58:34;;;;;;;11.68;8.13;;;11.40;99.90;;;;;;5080846;28;20267;-61
2023/03/21 09:01:22;;;;;;;11.18;7.97;;;11.40;99.90;;;;;;5074810;28;20223;-63
2023/03/21 09:04:11;;;;;;;9.10;7.47;;;11.20;99.90;;;;;;5086152;27;20228;-61
2023/03/21 09:07:03;;;;;;;9.23;7.15;;;11.20;99.90;;;;;;5080099;28;20978;-63
2023/03/21 09:09:53;;;;;;;11.65;8.55;;;11.10;99.90;;;;;;5078624;28;20505;-62
2023/03/21 09:13:03;;;;;;;10.68;9.07;;;11.10;99.90;;;;;;5079556;27;20223;-62
2023/03/21 09:15:52;;;;;;;10.80;8.30;;;11.10;99.90;;;;;;5080622;28;20227;-62
2023/03/21 09:18:48;;;;;;;11.38;8.38;;;11.10;99.90;;;;;;5084339;28;20234;-62
2023/03/21 09:21:38;;;;;;;10.65;8.00;;;11.20;99.90;;;;;;5078851;28;20308;-62
2023/03/21 09:24:26;;;;;;;9.95;7.80;;;11.20;99.90;;;;;;5080050;28;20223;-62
2023/03/21 09:27:16;;;;;;;13.07;8.85;;;11.20;99.90;;;;;;5077898;27;20223;-63
2023/03/21 09:30:08;;;;;;;11.88;8.43;;;11.10;99.90;;;;;;5085396;28;20227;-61
2023/03/21 09:32:59;;;;;;;11.65;8.60;;;11.10;99.90;;;;;;5082330;28;20287;-62
2023/03/21 09:35:49;;;;;;;12.45;8.68;;;11.20;99.90;;;;;;5078220;28;20544;-61
2023/03/21 09:38:44;;;;;;;9.63;7.95;;;11.40;99.90;;;;;;5077852;28;20232;-63
2023/03/21 09:41:44;;;;;;;8.50;7.47;;;11.40;99.90;;;;;;5088445;28;20380;-62
2023/03/21 09:44:48;;;;;;;10.07;7.65;;;11.40;99.90;;;;;;5077741;28;20222;-59
2023/03/21 09:47:48;;;;;;;10.88;8.35;;;11.20;99.90;;;;;;5076190;28;20234;-63
2023/03/21 09:50:39;;;;;;;7.75;6.70;;;11.10;99.90;;;;;;5093732;28;20226;-57
2023/03/21 09:53:32;;;;;;;9.45;7.55;;;11.20;99.90;;;;;;5089758;28;20227;-62
2023/03/21 09:56:23;;;;;;;10.27;7.60;;;11.20;99.90;;;;;;5077687;28;20425;-61
2023/03/21 09:59:21;;;;;;;8.82;7.00;;;11.10;99.90;;;;;;5080442;28;21076;-62
2023/03/21 10:02:30;;;;;;;8.77;7.13;;;10.90;99.90;;;;;;5076062;28;20326;-62
2023/03/21 10:05:23;;;;;;;10.90;8.30;;;10.90;99.90;;;;;;5082936;27;20250;-62
2023/03/21 10:08:21;;;;;;;9.93;7.88;;;10.90;99.90;;;;;;5078527;28;20219;-61
2023/03/21 10:11:17;;;;;;;10.52;7.75;;;10.80;99.90;;;;;;5074979;28;20785;-59
2023/03/21 10:14:13;;;;;;;11.35;8.93;;;10.90;99.90;;;;;;5075260;28;20211;-60
2023/03/21 10:17:15;;;;;;;13.75;8.98;;;10.90;99.90;;;;;;5073968;28;20564;-60
2023/03/21 10:20:14;;;;;;;12.18;9.30;;;11.10;99.90;;;;;;5079426;28;20235;-62
2023/03/21 10:23:07;;;;;;;11.45;8.70;;;11.30;99.90;;;;;;5078428;28;20598;-62
2023/03/21 10:25:59;;;;;;;12.23;8.85;;;11.30;99.90;;;;;;5080879;28;20227;-60
2023/03/21 10:28:49;;;;;;;12.57;9.57;;;11.50;99.90;;;;;;5080363;28;20299;-62
2023/03/21 10:31:42;;;;;;;13.02;9.13;;;11.50;99.90;;;;;;5099993;27;20223;-62
2023/03/21 10:34:36;;;;;;;11.55;7.75;;;11.40;99.90;;;;;;5082435;28;20224;-63
2023/03/21 10:37:25;;;;;;;10.10;7.70;;;11.30;99.90;;;;;;5079891;28;20215;-62
2023/03/21 10:40:18;;;;;;;8.98;6.95;;;11.10;99.90;;;;;;5080265;28;20231;-61
2023/03/21 10:43:18;;;;;;;11.93;7.82;;;11.10;99.90;;;;;;5089546;28;20280;-62
2023/03/21 10:46:11;;;;;;;9.43;7.10;;;11.00;99.90;;;;;;5079538;28;20234;-61
2023/03/21 10:49:00;;;;;;;9.02;6.80;;;11.10;99.90;;;;;;5074978;28;20220;-62
2023/03/21 10:51:52;;;;;;;6.53;4.50;;;11.20;99.90;;;;;;5079788;28;20224;-60
2023/03/21 10:54:41;;;;;;;3.30;2.70;;;11.30;99.90;;;;;;5089122;28;20227;-60
2023/03/21 10:57:31;;;;;;;3.53;2.10;;;11.20;99.90;;;;;;5077417;28;20238;-60
2023/03/21 11:00:22;;;;;;;4.88;1.90;;;11.20;99.90;;;;;;5080466;28;20223;-61
2023/03/21 11:03:21;;;;;;;5.07;1.90;;;11.20;99.90;;;;;;5081417;28;20235;-61
2023/03/21 11:06:16;;;;;;;7.03;2.70;;;11.30;99.90;;;;;;5075403;28;20230;-61
2023/03/21 11:09:11;;;;;;;3.00;2.15;;;11.60;99.90;;;;;;5081626;28;20223;-64
2023/03/21 11:12:04;;;;;;;3.55;2.42;;;11.90;99.90;;;;;;5082724;28;20328;-61
2023/03/21 11:14:55;;;;;;;3.72;2.70;;;11.90;99.90;;;;;;5085002;28;20235;-61
2023/03/21 11:17:44;;;;;;;8.35;6.10;;;12.20;99.90;;;;;;5081993;28;20230;-61
2023/03/21 11:20:34;;;;;;;7.07;4.43;;;12.50;99.90;;;;;;5073788;28;20437;-59
2023/03/21 11:23:28;;;;;;;5.97;4.18;;;12.50;99.90;;;;;;5085970;28;20227;-59
2023/03/21 11:26:22;;;;;;;5.80;4.15;;;12.80;99.90;;;;;;5084731;28;20298;-58
2023/03/21 11:29:24;;;;;;;5.63;4.43;;;12.70;99.90;;;;;;5082624;28;21068;-60
2023/03/21 11:32:20;;;;;;;7.05;4.32;;;12.70;99.90;;;;;;5082091;28;20223;-61
2023/03/21 11:35:20;;;;;;;6.70;4.43;;;13.00;99.90;;;;;;5083798;28;20224;-60
2023/03/21 11:38:24;;;;;;;5.97;4.47;;;13.00;99.90;;;;;;5077935;28;20830;-60
2023/03/21 11:41:23;;;;;;;5.15;4.65;;;12.60;99.90;;;;;;5081690;28;20219;-60
2023/03/21 11:44:27;;;;;;;7.32;4.75;;;12.70;99.90;;;;;;5082500;28;20532;-61
2023/03/21 11:47:17;;;;;;;6.20;4.90;;;12.70;99.90;;;;;;5082524;28;20246;-61
2023/03/21 11:50:20;;;;;;;5.65;4.70;;;12.90;99.90;;;;;;5080609;28;20224;-60
2023/03/21 11:53:28;;;;;;;8.93;6.15;;;12.80;99.90;;;;;;5077263;28;20234;-59
2023/03/21 11:56:25;;;;;;;6.70;5.60;;;12.80;99.90;;;;;;5107010;27;20227;-61
2023/03/21 11:59:31;;;;;;;7.03;4.90;;;13.10;99.90;;;;;;5082878;28;20282;-61
2023/03/21 12:02:46;;;;;;;8.50;5.28;;;13.10;99.90;;;;;;5082390;28;20219;-61
2023/03/21 12:05:38;;;;;;;8.40;5.72;;;13.10;99.90;;;;;;5082445;28;20229;-61
2023/03/21 12:08:40;;;;;;;7.57;6.15;;;13.30;99.90;;;;;;5081811;28;20253;-61
2023/03/21 12:11:37;;;;;;;7.22;6.18;;;13.10;99.90;;;;;;5094571;27;20215;-62
2023/03/21 12:14:35;;;;;;;11.98;9.43;;;12.90;99.90;;;;;;5082254;28;20239;-60
2023/03/21 12:17:39;;;;;;;6.88;6.15;;;12.90;99.90;;;;;;5079165;28;20226;-59
2023/03/21 12:20:39;;;;;;;6.75;6.05;;;12.80;99.90;;;;;;5081847;28;20540;-58
2023/03/21 12:23:47;;;;;;;6.53;5.82;;;12.70;99.90;;;;;;5084546;28;20224;-61
2023/03/21 12:26:43;;;;;;;8.85;5.97;;;12.80;99.90;;;;;;5075648;28;20219;-61
2023/03/21 12:29:53;;;;;;;7.05;6.05;;;12.70;99.90;;;;;;5082741;28;20331;-61
2023/03/21 12:32:57;;;;;;;7.72;5.70;;;12.70;99.90;;;;;;5077684;28;20698;-59
2023/03/21 12:35:59;;;;;;;9.43;6.05;;;12.80;99.90;;;;;;5081611;28;20223;-61
2023/03/21 12:38:57;;;;;;;6.88;5.45;;;12.70;99.90;;;;;;5076443;27;20235;-59
2023/03/21 12:41:58;;;;;;;6.63;5.20;;;12.50;99.90;;;;;;5078526;28;21541;-59
2023/03/21 12:44:52;;;;;;;7.88;5.28;;;12.50;99.90;;;;;;5080619;28;20342;-62
2023/03/21 12:47:43;;;;;;;5.47;4.97;;;12.30;99.90;;;;;;5080884;28;20216;-60
2023/03/21 12:50:36;;;;;;;5.75;5.05;;;12.30;99.90;;;;;;5082659;28;20240;-59
2023/03/21 12:53:38;;;;;;;8.07;5.30;;;12.20;99.90;;;;;;5079422;28;20224;-61
2023/03/21 12:56:31;;;;;;;6.20;4.80;;;12.30;99.90;;;;;;5079456;28;20855;-57
2023/03/21 12:59:27;;;;;;;6.30;5.13;;;12.50;99.90;;;;;;5080047;28;20349;-61
2023/03/21 13:02:22;;;;;;;6.15;5.50;;;12.80;99.90;;;;;;5074879;28;20220;-60
2023/03/21 13:05:19;;;;;;;7.18;5.68;;;13.10;99.90;;;;;;5091720;28;20595;-59
2023/03/21 13:08:17;;;;;;;6.45;5.47;;;13.10;99.90;;;;;;5085564;28;20238;-59
2023/03/21 13:11:07;;;;;;;7.43;5.80;;;13.30;99.90;;;;;;5075404;28;20224;-61
2023/03/21 13:14:02;;;;;;;11.57;8.82;;;13.30;99.90;;;;;;5077300;28;20236;-61
2023/03/21 13:16:57;;;;;;;10.85;7.70;;;13.20;99.90;;;;;;5071159;28;20323;-61
2023/03/21 13:19:54;;;;;;;7.07;5.43;;;13.00;99.90;;;;;;5073296;28;20215;-60
2023/03/21 13:22:42;;;;;;;5.75;5.10;;;12.90;99.90;;;;;;5075505;28;20234;-59
2023/03/21 13:25:33;;;;;;;7.55;5.22;;;12.80;99.90;;;;;;5081229;28;20235;-62
2023/03/21 13:28:27;;;;;;;6.18;4.88;;;12.90;99.90;;;;;;5075796;28;20223;-59
2023/03/21 13:31:22;;;;;;;5.18;4.65;;;12.90;99.90;;;;;;5075305;28;20227;-61
2023/03/21 13:34:12;;;;;;;6.38;4.57;;;12.80;99.90;;;;;;5072419;28;20223;-60
2023/03/21 13:37:02;;;;;;;6.22;4.82;;;12.80;99.90;;;;;;5079533;28;20250;-61
2023/03/21 13:39:51;;;;;;;5.32;4.75;;;12.90;99.90;;;;;;5076037;28;20710;-61
2023/03/21 13:42:45;;;;;;;6.38;4.88;;;12.80;99.90;;;;;;5080641;27;20643;-59
2023/03/21 13:45:45;;;;;;;7.10;5.05;;;12.90;99.90;;;;;;5075869;28;20223;-58
2023/03/21 13:48:43;;;;;;;6.30;4.50;;;13.20;99.90;;;;;;5077935;28;20224;-59
2023/03/21 13:51:51;;;;;;;6.90;4.57;;;13.20;99.90;;;;;;5077981;28;20838;-61
2023/03/21 13:54:48;;;;;;;10.25;4.50;;;13.20;99.90;;;;;;5068770;28;20231;-61
2023/03/21 13:57:38;;;;;;;6.70;4.55;;;13.30;99.90;;;;;;5096618;27;20587;-60
2023/03/21 14:00:30;;;;;;;8.18;4.70;;;13.40;99.90;;;;;;5085680;28;20527;-61
2023/03/21 14:03:21;;;;;;;5.28;4.45;;;13.00;99.90;;;;;;5087800;28;20737;-58
2023/03/21 14:06:10;;;;;;;6.13;4.80;;;13.10;99.90;;;;;;5076192;28;20254;-61
2023/03/21 14:09:01;;;;;;;7.55;4.68;;;13.00;99.90;;;;;;5077289;28;20219;-61
2023/03/21 14:11:51;;;;;;;5.38;4.50;;;13.00;99.90;;;;;;5069613;28;20222;-60
2023/03/21 14:14:47;;;;;;;8.40;5.45;;;12.80;99.90;;;;;;5077126;28;20238;-61
2023/03/21 14:17:37;;;;;;;9.90;6.25;;;12.80;99.90;;;;;;5082321;27;20324;-59
2023/03/21 14:20:28;;;;;;;10.15;5.28;;;12.70;99.90;;;;;;5075594;28;20587;-59
2023/03/21 14:23:17;;;;;;;10.00;6.15;;;12.70;99.90;;;;;;5083540;28;20308;-59
2023/03/21 14:26:08;;;;;;;10.95;6.63;;;12.10;99.90;;;;;;5070305;28;20288;-59
2023/03/21 14:28:57;;;;;;;9.82;6.18;;;12.20;99.90;;;;;;5080032;28;20239;-59
2023/03/21 14:31:47;;;;;;;11.73;6.35;;;12.10;99.90;;;;;;5077427;28;20852;-59
2023/03/21 14:34:39;;;;;;;9.00;5.65;;;12.20;99.90;;;;;;5099490;27;20231;-59
2023/03/21 14:37:32;;;;;;;9.80;5.88;;;12.50;99.90;;;;;;5085052;28;20796;-61
2023/03/21 14:40:24;;;;;;;7.28;4.82;;;12.60;99.90;;;;;;5086701;28;20357;-59
2023/03/21 14:43:13;;;;;;;5.30;4.80;;;12.80;99.90;;;;;;5082863;28;20322;-62
2023/03/21 14:46:02;;;;;;;5.55;4.55;;;12.80;99.90;;;;;;5083624;28;20265;-59
2023/03/21 14:48:50;;;;;;;6.70;5.40;;;12.70;99.90;;;;;;5081118;28;20215;-60
2023/03/21 14:51:41;;;;;;;5.55;4.78;;;12.70;99.90;;;;;;5088181;28;20220;-59
2023/03/21 14:54:31;;;;;;;5.80;4.30;;;12.70;99.90;;;;;;5083319;28;20369;-60